Time;durP1;ratioP1;P1;durP2;ratioP2;P2;SDS_P1;SDS_P2;PMS_P1;PMS_P2;Temp;Humidity;BMP_temperature;BMP_pressure;BME280_temperature;BME280_humidity;BME280_pressure;Samples;Min_cycle;Max_cycle;Signal;HPM_P1;HPM_P2
2022/01/07 00:01:32;;;;;;;6.72;2.15;;;3.80;99.90;;;;;;5018694;28;20461;-67
2022/01/07 00:03:58;;;;;;;7.78;1.73;;;3.80;99.90;;;;;;5020398;28;20038;-64
2022/01/07 00:06:23;;;;;;;7.82;2.08;;;3.70;99.90;;;;;;5017967;28;20109;-66
2022/01/07 00:08:49;;;;;;;6.88;1.73;;;3.70;99.90;;;;;;5020981;28;20040;-66
2022/01/07 00:11:15;;;;;;;8.10;1.30;;;3.70;99.90;;;;;;5019328;28;20525;-65
2022/01/07 00:13:41;;;;;;;7.10;1.92;;;3.70;99.90;;;;;;5020241;28;20042;-65
2022/01/07 00:16:06;;;;;;;8.32;2.33;;;3.60;99.90;;;;;;5020307;28;20030;-65
2022/01/07 00:18:32;;;;;;;8.18;2.10;;;3.60;99.90;;;;;;5018075;28;20068;-65
2022/01/07 00:20:58;;;;;;;6.70;2.15;;;3.50;99.90;;;;;;5020911;28;20037;-66
2022/01/07 00:23:24;;;;;;;7.55;2.03;;;3.50;99.90;;;;;;5018391;28;20064;-65
2022/01/07 00:25:50;;;;;;;8.40;1.85;;;3.50;99.90;;;;;;5021818;28;20060;-65
2022/01/07 00:28:16;;;;;;;8.05;1.75;;;3.50;99.90;;;;;;5021894;28;20038;-64
2022/01/07 00:30:42;;;;;;;4.03;1.83;;;3.40;99.90;;;;;;5015754;28;20034;-65
2022/01/07 00:33:08;;;;;;;7.20;1.92;;;3.50;99.90;;;;;;5019903;28;20029;-65
2022/01/07 00:35:34;;;;;;;6.43;1.83;;;3.40;99.90;;;;;;5017868;28;20070;-65
2022/01/07 00:38:00;;;;;;;6.15;1.75;;;3.40;99.90;;;;;;5021370;28;20030;-65
2022/01/07 00:40:26;;;;;;;10.45;2.97;;;3.40;99.90;;;;;;5015953;28;20041;-64
2022/01/07 00:42:53;;;;;;;12.50;1.98;;;3.40;99.90;;;;;;5016897;28;20030;-65
2022/01/07 00:45:20;;;;;;;9.05;1.80;;;3.40;99.90;;;;;;5014796;28;20117;-65
2022/01/07 00:47:47;;;;;;;9.05;1.80;;;3.40;99.90;;;;;;5020374;28;20033;-65
2022/01/07 00:50:14;;;;;;;6.07;1.80;;;3.40;99.90;;;;;;5018940;28;20098;-65
2022/01/07 00:52:40;;;;;;;8.00;1.90;;;3.40;99.90;;;;;;5020727;28;20037;-65
2022/01/07 00:55:07;;;;;;;5.55;1.70;;;3.50;99.90;;;;;;5018088;28;20413;-65
2022/01/07 00:57:33;;;;;;;12.02;3.00;;;3.50;99.90;;;;;;5019363;28;20041;-65
2022/01/07 00:59:59;;;;;;;4.93;1.83;;;3.50;99.90;;;;;;5020309;28;20523;-65
2022/01/07 01:02:24;;;;;;;6.90;1.48;;;3.50;99.90;;;;;;5018372;28;20121;-64
2022/01/07 01:04:50;;;;;;;9.43;1.67;;;3.50;99.90;;;;;;5021737;28;20125;-65
2022/01/07 01:07:16;;;;;;;8.38;1.88;;;3.50;99.90;;;;;;5018212;28;20080;-65
2022/01/07 01:09:43;;;;;;;8.45;1.85;;;3.60;99.90;;;;;;5018760;28;20038;-65
2022/01/07 01:12:10;;;;;;;5.00;2.05;;;3.60;99.90;;;;;;5017796;28;20037;-64
2022/01/07 01:14:36;;;;;;;7.88;2.00;;;3.60;99.90;;;;;;5019582;28;20034;-65
2022/01/07 01:17:02;;;;;;;8.57;2.28;;;3.60;99.90;;;;;;5020417;28;20033;-65
2022/01/07 01:19:28;;;;;;;9.55;1.85;;;3.60;99.90;;;;;;5020511;28;20557;-66
2022/01/07 01:21:54;;;;;;;7.80;1.50;;;3.60;99.90;;;;;;5022442;28;20067;-66
2022/01/07 01:24:20;;;;;;;9.18;1.98;;;3.60;99.90;;;;;;5020066;28;20050;-64
2022/01/07 01:26:46;;;;;;;7.45;2.70;;;3.60;99.90;;;;;;5016499;28;20068;-64
2022/01/07 01:29:11;;;;;;;5.80;1.98;;;3.60;99.90;;;;;;5026197;28;20459;-65
2022/01/07 01:31:37;;;;;;;9.07;2.03;;;3.60;99.90;;;;;;5023361;28;20046;-65
2022/01/07 01:34:04;;;;;;;8.82;2.17;;;3.60;99.90;;;;;;5021647;28;20046;-65
2022/01/07 01:36:30;;;;;;;9.85;2.63;;;3.60;99.90;;;;;;5022259;28;20072;-65
2022/01/07 01:38:56;;;;;;;10.45;2.30;;;3.50;99.90;;;;;;5023254;28;20075;-66
2022/01/07 01:41:22;;;;;;;8.73;2.90;;;3.50;99.90;;;;;;5020873;28;20525;-66
2022/01/07 01:43:49;;;;;;;6.70;2.53;;;3.50;99.90;;;;;;5021714;28;20061;-66
2022/01/07 01:46:18;;;;;;;7.25;2.35;;;3.50;99.90;;;;;;5018076;28;20087;-66
2022/01/07 01:48:45;;;;;;;12.30;2.63;;;3.50;99.90;;;;;;5040635;22;20512;-62
2022/01/07 01:51:11;;;;;;;8.65;2.33;;;3.50;99.90;;;;;;5037680;28;20033;-62
2022/01/07 01:53:36;;;;;;;5.78;2.17;;;3.50;99.90;;;;;;5031912;28;20045;-62
2022/01/07 01:56:03;;;;;;;8.80;3.30;;;3.40;99.90;;;;;;5032280;28;20034;-62
2022/01/07 01:58:28;;;;;;;9.63;3.15;;;3.50;99.90;;;;;;5032065;28;20084;-62
2022/01/07 02:00:54;;;;;;;10.75;2.22;;;3.50;99.90;;;;;;5032571;28;20440;-62
2022/01/07 02:03:19;;;;;;;10.57;2.30;;;3.50;99.90;;;;;;5031941;28;20038;-62
2022/01/07 02:05:46;;;;;;;13.65;2.58;;;3.50;99.90;;;;;;5032260;28;20079;-62
2022/01/07 02:08:12;;;;;;;6.55;2.53;;;3.50;99.90;;;;;;5030546;28;20033;-62
2022/01/07 02:10:37;;;;;;;8.90;2.50;;;3.50;99.90;;;;;;5031067;28;20116;-63
2022/01/07 02:13:03;;;;;;;11.43;2.22;;;3.50;99.90;;;;;;5032244;28;20132;-62
2022/01/07 02:15:29;;;;;;;7.50;3.08;;;3.50;99.90;;;;;;5031837;28;20052;-62
2022/01/07 02:17:57;;;;;;;8.30;2.67;;;3.50;99.90;;;;;;5031508;28;20041;-62
2022/01/07 02:20:25;;;;;;;6.35;2.00;;;3.60;99.90;;;;;;5030586;28;20036;-62
2022/01/07 02:22:52;;;;;;;14.15;3.03;;;3.60;99.90;;;;;;5030109;28;20481;-62
2022/01/07 02:25:17;;;;;;;7.60;1.83;;;3.60;99.90;;;;;;5032271;28;20033;-61
2022/01/07 02:27:44;;;;;;;8.10;3.05;;;3.60;99.90;;;;;;5031647;28;20029;-60
2022/01/07 02:30:22;;;;;;;7.57;2.53;;;3.60;99.90;;;;;;5031139;28;20067;-61
2022/01/07 02:32:48;;;;;;;8.20;2.42;;;3.60;99.90;;;;;;5025445;28;20124;-61
2022/01/07 02:35:15;;;;;;;10.35;3.13;;;3.50;99.90;;;;;;5032290;28;20080;-60
2022/01/07 02:37:41;;;;;;;7.07;2.28;;;3.50;99.90;;;;;;5031714;28;20033;-60
2022/01/07 02:40:08;;;;;;;10.43;2.97;;;3.50;99.90;;;;;;5031820;28;20087;-61
2022/01/07 02:42:34;;;;;;;4.40;2.00;;;3.50;99.90;;;;;;5030736;28;20159;-61
2022/01/07 02:45:00;;;;;;;7.80;1.95;;;3.50;99.90;;;;;;5032215;28;20033;-61
2022/01/07 02:47:31;;;;;;;4.53;2.20;;;3.50;99.90;;;;;;5031427;28;20052;-61
2022/01/07 02:50:04;;;;;;;7.18;2.15;;;3.50;99.90;;;;;;5031885;28;20064;-61
2022/01/07 02:52:30;;;;;;;7.05;2.42;;;3.50;99.90;;;;;;5031380;28;20398;-61
2022/01/07 02:54:55;;;;;;;4.53;2.15;;;3.50;99.90;;;;;;5031564;28;20049;-61
2022/01/07 02:57:21;;;;;;;7.03;2.55;;;3.50;99.90;;;;;;5031110;28;20037;-61
2022/01/07 02:59:46;;;;;;;11.32;2.50;;;3.50;99.90;;;;;;5031440;28;20041;-62
2022/01/07 03:02:12;;;;;;;8.13;2.47;;;3.50;99.90;;;;;;5031348;28;20033;-61
2022/01/07 03:04:38;;;;;;;8.73;2.90;;;3.50;99.90;;;;;;5031106;28;20036;-61
2022/01/07 03:07:03;;;;;;;7.22;2.60;;;3.50;99.90;;;;;;5031242;28;20060;-61
2022/01/07 03:09:29;;;;;;;13.70;2.58;;;3.50;99.90;;;;;;5030925;28;20036;-61
2022/01/07 03:11:55;;;;;;;6.85;2.28;;;3.50;99.90;;;;;;5030725;28;20087;-61
2022/01/07 03:14:20;;;;;;;7.13;2.55;;;3.50;99.90;;;;;;5030918;28;20029;-61
2022/01/07 03:16:46;;;;;;;8.25;2.42;;;3.50;99.90;;;;;;5031483;28;20712;-61
2022/01/07 03:19:12;;;;;;;10.27;2.83;;;3.60;99.90;;;;;;5031663;28;20091;-62
2022/01/07 03:21:37;;;;;;;14.52;4.18;;;3.60;99.90;;;;;;5029695;28;20049;-61
2022/01/07 03:24:03;;;;;;;5.57;2.78;;;3.60;99.90;;;;;;5031405;28;20048;-61
2022/01/07 03:26:29;;;;;;;6.50;2.42;;;3.60;99.90;;;;;;5029127;28;20084;-61
2022/01/07 03:28:54;;;;;;;6.95;2.60;;;3.60;99.90;;;;;;5031502;28;20056;-62
2022/01/07 03:31:20;;;;;;;6.05;2.33;;;3.60;99.90;;;;;;5031008;28;20072;-61
2022/01/07 03:33:45;;;;;;;8.48;2.92;;;3.60;99.90;;;;;;5031451;28;20064;-61
2022/01/07 03:36:11;;;;;;;4.13;2.38;;;3.50;99.90;;;;;;5031513;28;20120;-61
2022/01/07 03:38:37;;;;;;;6.55;2.88;;;3.50;99.90;;;;;;5030594;28;20033;-61
2022/01/07 03:41:03;;;;;;;5.93;2.85;;;3.50;99.90;;;;;;5030043;28;21670;-61
2022/01/07 03:43:28;;;;;;;6.93;3.08;;;3.60;99.90;;;;;;5026310;28;20029;-61
2022/01/07 03:45:54;;;;;;;4.78;2.78;;;3.60;99.90;;;;;;5031387;28;20029;-61
2022/01/07 03:48:19;;;;;;;6.65;2.70;;;3.60;99.90;;;;;;5029017;28;20041;-63
2022/01/07 03:50:45;;;;;;;6.00;2.95;;;3.60;99.90;;;;;;5030652;28;20052;-62
2022/01/07 03:53:11;;;;;;;6.75;3.15;;;3.60;99.90;;;;;;5031290;28;20492;-60
2022/01/07 03:55:36;;;;;;;10.35;3.50;;;3.60;99.90;;;;;;5030294;28;20042;-61
2022/01/07 03:58:02;;;;;;;4.68;2.63;;;3.60;99.90;;;;;;5030753;28;20033;-61
2022/01/07 04:00:33;;;;;;;10.23;4.32;;;3.70;99.90;;;;;;5030689;28;20033;-61
2022/01/07 04:03:00;;;;;;;8.38;3.85;;;3.60;99.90;;;;;;5031747;28;20220;-61
2022/01/07 04:05:26;;;;;;;7.30;3.03;;;3.60;99.90;;;;;;5031914;28;20029;-61
2022/01/07 04:07:52;;;;;;;5.05;3.47;;;3.60;99.90;;;;;;5031748;28;20057;-61
2022/01/07 04:10:18;;;;;;;9.23;3.90;;;3.60;99.90;;;;;;5031407;28;20037;-61
2022/01/07 04:12:43;;;;;;;9.48;4.07;;;3.60;99.90;;;;;;5030441;28;20068;-61
2022/01/07 04:15:10;;;;;;;7.53;3.30;;;3.60;99.90;;;;;;5032677;28;20099;-60
2022/01/07 04:17:46;;;;;;;8.13;3.70;;;3.70;99.90;;;;;;5031079;28;20630;-61
2022/01/07 04:20:15;;;;;;;8.30;3.72;;;3.70;99.90;;;;;;5030628;28;20489;-61
2022/01/07 04:22:43;;;;;;;9.70;4.55;;;3.70;99.90;;;;;;5030488;28;20038;-61
2022/01/07 04:25:17;;;;;;;8.30;3.88;;;3.70;99.90;;;;;;5029299;28;20447;-62
2022/01/07 04:27:45;;;;;;;8.55;3.60;;;3.70;99.90;;;;;;5009325;28;20025;-62
2022/01/07 04:30:11;;;;;;;7.68;3.92;;;3.70;99.90;;;;;;5029248;28;20036;-61
2022/01/07 04:32:37;;;;;;;6.53;3.47;;;3.70;99.90;;;;;;5030193;28;20068;-61
2022/01/07 04:35:05;;;;;;;5.95;3.72;;;3.70;99.90;;;;;;5030767;28;20129;-61
2022/01/07 04:37:31;;;;;;;8.90;3.95;;;3.70;99.90;;;;;;5031619;28;20095;-61
2022/01/07 04:39:57;;;;;;;12.32;4.07;;;3.70;99.90;;;;;;5030084;28;20038;-62
2022/01/07 04:42:22;;;;;;;7.55;3.92;;;3.80;99.90;;;;;;5031206;28;20043;-61
2022/01/07 04:44:48;;;;;;;6.10;4.10;;;3.80;99.90;;;;;;5032271;28;20033;-62
2022/01/07 04:47:13;;;;;;;9.02;5.05;;;3.80;99.90;;;;;;5032676;28;20125;-61
2022/01/07 04:49:39;;;;;;;8.40;4.53;;;3.80;99.90;;;;;;5031772;28;20045;-62
2022/01/07 04:52:05;;;;;;;9.18;4.15;;;3.90;99.90;;;;;;5032347;28;20040;-61
2022/01/07 04:54:31;;;;;;;10.10;4.63;;;3.90;99.90;;;;;;5031294;28;20044;-61
2022/01/07 04:56:57;;;;;;;7.93;4.22;;;3.90;99.90;;;;;;5031273;28;20452;-62
2022/01/07 04:59:23;;;;;;;11.75;5.07;;;3.90;99.90;;;;;;5030580;28;20025;-61
2022/01/07 05:01:48;;;;;;;7.50;4.45;;;3.90;99.90;;;;;;5032471;28;20038;-61
2022/01/07 05:04:14;;;;;;;10.90;5.07;;;3.90;99.90;;;;;;5032156;28;20372;-61
2022/01/07 05:06:47;;;;;;;11.45;5.50;;;3.90;99.90;;;;;;5032109;28;20041;-61
2022/01/07 05:09:16;;;;;;;6.45;4.30;;;3.90;99.90;;;;;;5032719;28;20038;-60
2022/01/07 05:11:46;;;;;;;12.75;5.53;;;4.00;99.90;;;;;;5031931;28;20068;-61
2022/01/07 05:14:12;;;;;;;9.02;4.97;;;4.00;99.90;;;;;;5032453;28;20041;-61
2022/01/07 05:16:38;;;;;;;12.05;5.32;;;4.00;99.90;;;;;;5032793;28;20033;-61
2022/01/07 05:19:04;;;;;;;15.07;6.07;;;4.00;99.90;;;;;;5032048;28;20036;-61
2022/01/07 05:21:30;;;;;;;10.65;5.70;;;4.10;99.90;;;;;;5030933;28;20523;-60
2022/01/07 05:23:55;;;;;;;13.23;6.28;;;4.10;99.90;;;;;;5028942;28;20064;-60
2022/01/07 05:26:21;;;;;;;14.50;6.40;;;4.20;99.90;;;;;;5029036;28;20041;-61
2022/01/07 05:28:47;;;;;;;11.25;5.80;;;4.30;99.90;;;;;;5029008;28;20041;-61
2022/01/07 05:31:13;;;;;;;13.05;5.80;;;4.30;99.90;;;;;;5029107;28;20033;-60
2022/01/07 05:33:38;;;;;;;8.70;5.43;;;4.40;99.90;;;;;;5028389;28;20119;-60
2022/01/07 05:36:04;;;;;;;11.57;5.80;;;4.40;99.90;;;;;;5028022;28;20041;-61
2022/01/07 05:38:29;;;;;;;13.35;5.78;;;4.40;99.90;;;;;;5027352;28;20029;-61
2022/01/07 05:40:55;;;;;;;19.25;6.75;;;4.50;99.90;;;;;;5028889;28;20615;-60
2022/01/07 05:43:21;;;;;;;11.85;4.95;;;4.50;99.90;;;;;;5025355;28;20038;-63
2022/01/07 05:45:46;;;;;;;7.88;5.13;;;4.50;99.90;;;;;;5029147;28;20116;-61
2022/01/07 05:48:13;;;;;;;11.15;5.30;;;4.50;99.90;;;;;;5029176;28;20044;-61
2022/01/07 05:50:39;;;;;;;12.52;5.75;;;4.60;99.90;;;;;;5028460;28;20500;-61
2022/01/07 05:53:04;;;;;;;9.60;5.22;;;4.60;99.90;;;;;;5028181;28;20037;-61
2022/01/07 05:55:30;;;;;;;8.68;4.97;;;4.60;99.90;;;;;;5020126;28;20057;-62
2022/01/07 05:57:56;;;;;;;10.63;4.97;;;4.60;99.90;;;;;;5028854;28;20401;-62
2022/01/07 06:00:22;;;;;;;16.90;5.00;;;4.70;99.90;;;;;;5028128;28;20686;-61
2022/01/07 06:02:47;;;;;;;17.48;5.47;;;4.70;99.90;;;;;;5028902;28;20041;-61
2022/01/07 06:05:13;;;;;;;11.00;4.72;;;4.70;99.90;;;;;;5031748;28;20034;-60
2022/01/07 06:07:39;;;;;;;8.23;4.75;;;4.70;99.90;;;;;;5032030;28;20029;-62
2022/01/07 06:10:06;;;;;;;10.57;5.18;;;4.80;99.90;;;;;;5031853;28;20040;-61
2022/01/07 06:12:31;;;;;;;10.70;4.95;;;4.80;99.90;;;;;;5031991;28;20041;-61
2022/01/07 06:14:58;;;;;;;21.70;6.47;;;4.80;99.90;;;;;;5032281;28;20619;-61
2022/01/07 06:17:23;;;;;;;11.95;5.38;;;4.80;99.90;;;;;;5031918;28;20463;-61
2022/01/07 06:19:49;;;;;;;11.57;5.45;;;4.80;99.90;;;;;;5031488;28;20046;-63
2022/01/07 06:22:15;;;;;;;12.60;5.75;;;4.80;99.90;;;;;;5032100;28;20064;-61
2022/01/07 06:24:40;;;;;;;6.93;4.72;;;4.80;99.90;;;;;;5030346;28;20497;-61
2022/01/07 06:27:06;;;;;;;11.30;5.28;;;4.80;99.90;;;;;;5032150;28;20121;-61
2022/01/07 06:29:32;;;;;;;12.57;5.25;;;4.80;99.90;;;;;;5031299;28;20052;-61
2022/01/07 06:31:57;;;;;;;11.88;4.82;;;4.90;99.90;;;;;;5032598;28;20122;-61
2022/01/07 06:34:23;;;;;;;9.70;5.13;;;4.90;99.90;;;;;;5031408;28;20118;-61
2022/01/07 06:36:49;;;;;;;9.52;4.55;;;4.90;99.90;;;;;;5032007;28;20044;-61
2022/01/07 06:39:18;;;;;;;14.15;6.10;;;4.90;99.90;;;;;;5031683;28;20029;-61
2022/01/07 06:41:46;;;;;;;14.88;6.18;;;4.90;99.90;;;;;;5027145;28;20034;-61
2022/01/07 06:44:13;;;;;;;12.55;5.75;;;4.90;99.90;;;;;;5025682;28;20035;-60
2022/01/07 06:46:38;;;;;;;8.82;4.82;;;4.90;99.90;;;;;;5031097;28;20489;-61
2022/01/07 06:49:04;;;;;;;17.40;5.30;;;4.90;99.90;;;;;;5031627;28;20041;-60
2022/01/07 06:51:31;;;;;;;15.88;5.85;;;4.90;99.90;;;;;;5030904;28;20080;-61
2022/01/07 06:53:56;;;;;;;11.40;4.80;;;5.00;99.90;;;;;;5030112;28;20102;-60
2022/01/07 06:56:22;;;;;;;12.23;5.28;;;5.00;99.90;;;;;;5030992;28;20493;-60
2022/01/07 06:58:47;;;;;;;9.48;4.32;;;5.00;99.90;;;;;;5031629;28;20158;-61
2022/01/07 07:01:13;;;;;;;16.77;5.55;;;5.10;99.90;;;;;;5030893;28;20116;-61
2022/01/07 07:03:40;;;;;;;12.05;5.30;;;5.10;99.90;;;;;;5030696;28;20499;-60
2022/01/07 07:06:06;;;;;;;10.00;5.55;;;5.00;99.90;;;;;;5031099;28;20057;-61
2022/01/07 07:08:32;;;;;;;15.35;4.90;;;5.00;99.90;;;;;;5029297;28;20063;-60
2022/01/07 07:10:57;;;;;;;11.57;4.82;;;5.00;99.90;;;;;;5030977;28;20034;-61
2022/01/07 07:13:23;;;;;;;19.17;6.45;;;5.00;99.90;;;;;;5029976;28;20037;-61
2022/01/07 07:15:49;;;;;;;15.38;4.90;;;5.00;99.90;;;;;;5030589;28;20036;-62
2022/01/07 07:18:14;;;;;;;14.18;4.50;;;5.10;99.90;;;;;;5029803;28;20647;-61
2022/01/07 07:20:40;;;;;;;29.67;6.03;;;5.00;99.90;;;;;;5028407;28;20120;-61
2022/01/07 07:23:06;;;;;;;10.88;4.43;;;5.10;99.90;;;;;;5030986;28;20678;-61
2022/01/07 07:25:31;;;;;;;13.32;5.55;;;5.10;99.90;;;;;;5030408;28;20030;-60
2022/01/07 07:27:57;;;;;;;12.80;5.00;;;5.10;99.90;;;;;;5030653;28;20045;-61
2022/01/07 07:30:24;;;;;;;12.75;4.90;;;5.10;99.90;;;;;;5030216;28;20040;-61
2022/01/07 07:32:53;;;;;;;19.02;5.82;;;5.10;99.90;;;;;;5030172;28;20099;-60
2022/01/07 07:37:44;;;;;;;15.27;5.13;;;5.20;99.90;;;;;;5029962;28;20081;-61
2022/01/07 07:40:10;;;;;;;11.80;5.63;;;5.10;99.90;;;;;;5030366;28;20056;-62
2022/01/07 07:42:36;;;;;;;10.45;5.30;;;5.20;99.90;;;;;;5027603;28;20077;-63
2022/01/07 07:45:02;;;;;;;14.18;5.80;;;5.20;99.90;;;;;;5030650;28;20030;-61
2022/01/07 07:47:28;;;;;;;11.43;4.38;;;5.10;99.90;;;;;;5029934;28;20042;-62
2022/01/07 07:49:54;;;;;;;14.02;6.72;;;5.10;99.90;;;;;;5013621;28;20124;-62
2022/01/07 07:52:19;;;;;;;11.35;5.85;;;5.20;99.90;;;;;;5017979;28;20457;-61
2022/01/07 07:54:45;;;;;;;23.45;5.05;;;5.20;99.90;;;;;;5028372;28;20556;-62
2022/01/07 07:57:11;;;;;;;20.30;6.60;;;5.20;99.90;;;;;;5030396;28;20381;-62
2022/01/07 07:59:36;;;;;;;22.17;5.63;;;5.20;99.90;;;;;;5023446;28;20048;-61
2022/01/07 08:02:02;;;;;;;12.85;4.97;;;5.10;99.90;;;;;;5015949;28;20033;-61
2022/01/07 08:04:29;;;;;;;18.60;5.00;;;5.00;99.90;;;;;;5011065;28;20129;-63
2022/01/07 08:06:55;;;;;;;7.05;4.07;;;5.00;99.90;;;;;;5012312;28;20033;-61
2022/01/07 08:09:21;;;;;;;13.07;5.47;;;4.80;99.90;;;;;;5015233;28;20026;-62
2022/01/07 08:11:52;;;;;;;8.02;3.72;;;4.80;99.90;;;;;;5016351;28;20030;-62
2022/01/07 08:17:05;;;;;;;17.05;5.55;;;4.60;99.90;;;;;;5010164;28;20080;-61
2022/01/07 08:19:30;;;;;;;14.75;4.35;;;4.60;99.90;;;;;;5012792;28;20026;-62
2022/01/07 08:21:56;;;;;;;12.13;3.80;;;4.50;99.90;;;;;;5017095;28;20040;-62
2022/01/07 08:24:22;;;;;;;12.73;4.15;;;4.50;99.90;;;;;;5014933;28;20045;-62
2022/01/07 08:26:48;;;;;;;15.70;4.68;;;4.50;99.90;;;;;;5016641;28;20120;-61
2022/01/07 08:29:15;;;;;;;15.82;4.28;;;4.60;99.90;;;;;;5016761;28;20064;-61
2022/01/07 08:36:51;;;;;;;16.60;4.22;;;4.60;99.90;;;;;;5029408;28;20083;-61
2022/01/07 08:39:16;;;;;;;11.60;3.90;;;4.50;99.90;;;;;;5029685;28;20057;-62
2022/01/07 08:41:42;;;;;;;16.10;4.30;;;4.50;99.90;;;;;;5019596;28;20034;-61
2022/01/07 08:44:09;;;;;;;8.00;3.60;;;4.50;99.90;;;;;;5027156;28;20334;-61
2022/01/07 08:46:36;;;;;;;11.93;4.10;;;4.50;99.90;;;;;;5027973;28;20037;-60
2022/01/07 08:49:03;;;;;;;10.20;4.07;;;4.50;99.90;;;;;;5028172;28;20510;-61
2022/01/07 08:51:29;;;;;;;19.33;4.55;;;4.40;99.90;;;;;;5028081;28;20087;-62
2022/01/07 08:53:56;;;;;;;13.18;3.65;;;4.40;99.90;;;;;;5028371;28;20041;-62
2022/01/07 08:56:26;;;;;;;12.40;4.97;;;4.40;99.90;;;;;;5020619;28;20025;-62
2022/01/07 08:58:53;;;;;;;10.20;3.40;;;4.50;99.90;;;;;;5020281;28;20033;-62
2022/01/07 09:01:19;;;;;;;13.55;5.00;;;4.60;99.90;;;;;;5027790;28;20125;-62
2022/01/07 09:03:45;;;;;;;12.38;4.10;;;4.60;99.90;;;;;;5026194;28;20091;-61
2022/01/07 09:06:10;;;;;;;9.55;4.10;;;4.70;99.90;;;;;;5028425;28;20104;-61
2022/01/07 09:08:36;;;;;;;9.05;3.78;;;4.70;99.90;;;;;;5027882;28;20068;-61
2022/01/07 09:11:02;;;;;;;9.43;3.92;;;4.80;99.90;;;;;;5028419;28;20080;-62
2022/01/07 09:13:27;;;;;;;12.65;3.78;;;4.70;99.90;;;;;;5027879;28;20083;-62
2022/01/07 09:15:53;;;;;;;11.57;3.90;;;4.80;99.90;;;;;;5028075;28;20517;-62
2022/01/07 09:18:20;;;;;;;10.70;3.75;;;4.80;99.90;;;;;;5020258;28;20049;-62
2022/01/07 09:20:47;;;;;;;9.30;3.65;;;4.80;99.90;;;;;;5027561;28;20041;-61
2022/01/07 09:23:14;;;;;;;7.75;3.20;;;4.80;99.90;;;;;;5028453;28;20041;-61
2022/01/07 09:25:40;;;;;;;14.13;3.85;;;4.90;99.90;;;;;;5020601;28;20034;-61
2022/01/07 09:28:06;;;;;;;10.52;2.70;;;5.00;99.90;;;;;;5012445;28;20064;-61
2022/01/07 09:30:33;;;;;;;9.15;2.60;;;5.00;99.90;;;;;;5012092;28;20026;-61
2022/01/07 09:32:58;;;;;;;15.93;3.47;;;5.10;99.90;;;;;;5014071;28;20038;-61
2022/01/07 09:35:24;;;;;;;11.82;3.22;;;5.20;99.90;;;;;;5027870;28;20037;-62
2022/01/07 09:37:50;;;;;;;16.15;3.30;;;5.30;99.90;;;;;;5027684;28;20061;-61
2022/01/07 09:40:17;;;;;;;20.80;3.50;;;5.40;99.90;;;;;;5030238;28;20441;-62
2022/01/07 09:43:04;;;;;;;17.55;3.92;;;5.60;99.90;;;;;;5030171;28;20105;-60
2022/01/07 09:45:31;;;;;;;11.68;3.00;;;5.80;99.90;;;;;;5027295;28;20041;-61
2022/01/07 09:47:58;;;;;;;11.85;2.65;;;5.80;99.90;;;;;;5032705;28;20469;-63
2022/01/07 09:50:25;;;;;;;14.07;3.63;;;5.80;99.90;;;;;;5032427;28;20064;-62
2022/01/07 09:52:51;;;;;;;10.20;2.58;;;5.80;99.90;;;;;;5032563;28;20041;-62
2022/01/07 09:55:18;;;;;;;9.85;3.30;;;5.80;99.90;;;;;;5028451;28;20041;-61
2022/01/07 09:57:43;;;;;;;11.40;2.92;;;5.80;99.90;;;;;;5031216;28;20117;-62
2022/01/07 10:00:11;;;;;;;18.08;2.92;;;5.80;99.90;;;;;;5033052;28;20510;-63
2022/01/07 10:02:36;;;;;;;7.50;2.60;;;5.80;99.90;;;;;;5032459;28;20029;-61
2022/01/07 10:05:18;;;;;;;10.77;2.67;;;5.80;99.90;;;;;;5031144;28;20056;-61
2022/01/07 10:07:44;;;;;;;12.63;2.92;;;5.80;99.90;;;;;;5029454;28;20045;-61
2022/01/07 10:10:17;;;;;;;10.32;3.03;;;5.90;99.90;;;;;;5032021;28;20036;-60
2022/01/07 10:13:06;;;;;;;13.77;2.55;;;5.90;99.90;;;;;;5029855;28;20090;-62
2022/01/07 10:15:34;;;;;;;8.88;2.60;;;5.90;99.90;;;;;;5014978;28;20034;-60
2022/01/07 10:18:11;;;;;;;9.93;2.97;;;5.90;99.90;;;;;;5017421;28;20409;-60
2022/01/07 10:20:41;;;;;;;6.38;2.47;;;6.00;99.90;;;;;;5016870;28;20066;-61
2022/01/07 10:23:09;;;;;;;8.88;3.00;;;6.00;99.90;;;;;;5015130;28;20045;-61
2022/01/07 10:25:37;;;;;;;12.75;2.85;;;6.00;99.90;;;;;;5015050;28;20050;-61
2022/01/07 10:28:08;;;;;;;7.18;2.25;;;6.00;99.90;;;;;;5014118;28;20030;-60
2022/01/07 10:30:40;;;;;;;27.25;4.65;;;6.10;99.90;;;;;;5014343;28;20048;-60
2022/01/07 10:33:22;;;;;;;13.13;4.22;;;6.00;99.90;;;;;;5014214;28;20130;-60
2022/01/07 10:35:51;;;;;;;4.15;1.45;;;5.90;99.90;;;;;;5014425;28;20121;-60
2022/01/07 10:38:19;;;;;;;17.30;2.58;;;5.90;99.90;;;;;;5014792;28;20282;-61
2022/01/07 10:40:47;;;;;;;8.52;2.58;;;5.90;99.90;;;;;;5013859;28;20041;-60
2022/01/07 10:43:25;;;;;;;6.63;1.83;;;6.00;99.90;;;;;;5016051;28;21357;-61
2022/01/07 10:45:50;;;;;;;9.93;2.30;;;6.10;99.90;;;;;;5016510;28;20168;-61
2022/01/07 10:48:18;;;;;;;9.98;1.77;;;6.20;99.90;;;;;;5016501;28;20485;-60
2022/01/07 10:50:52;;;;;;;9.45;2.00;;;6.20;99.90;;;;;;5011146;28;20037;-61
2022/01/07 10:53:29;;;;;;;9.18;1.38;;;6.10;99.90;;;;;;5014655;28;20048;-61
2022/01/07 10:55:59;;;;;;;2.58;1.00;;;6.00;99.90;;;;;;5039959;28;20029;-61
2022/01/07 10:58:25;;;;;;;;;;;5.90;99.90;;;;;;5021216;28;20030;-62
2022/01/07 11:00:51;;;;;;;6.38;2.17;;;5.80;99.90;;;;;;5021269;28;20032;-61
2022/01/07 11:03:17;;;;;;;9.07;2.30;;;5.70;99.90;;;;;;5030924;28;20507;-61
2022/01/07 11:05:42;;;;;;;10.75;2.80;;;5.80;99.90;;;;;;5022206;28;20041;-61
2022/01/07 11:08:08;;;;;;;9.35;2.53;;;5.80;99.90;;;;;;5030589;28;20025;-61
2022/01/07 11:10:36;;;;;;;12.07;2.58;;;5.80;99.90;;;;;;5030553;28;20128;-61
2022/01/07 11:13:03;;;;;;;11.25;2.00;;;5.80;99.90;;;;;;5031316;28;20041;-60
2022/01/07 11:15:29;;;;;;;6.25;1.92;;;5.90;99.90;;;;;;5030157;28;20049;-62
2022/01/07 11:17:54;;;;;;;12.98;2.97;;;6.00;99.90;;;;;;5031095;28;20109;-61
2022/01/07 11:20:24;;;;;;;13.55;2.65;;;6.10;99.90;;;;;;5030649;28;20396;-61
2022/01/07 11:22:50;;;;;;;10.68;1.83;;;6.20;99.90;;;;;;5023077;28;20117;-61
2022/01/07 11:25:17;;;;;;;11.02;1.77;;;6.40;99.90;;;;;;5030953;28;20663;-61
2022/01/07 11:27:54;;;;;;;5.25;1.63;;;6.50;99.90;;;;;;5014328;28;20033;-61
2022/01/07 11:30:24;;;;;;;10.65;1.40;;;6.40;99.90;;;;;;5029477;28;20116;-61
2022/01/07 11:32:52;;;;;;;12.95;1.48;;;6.50;99.90;;;;;;5029459;28;20493;-61
2022/01/07 11:35:18;;;;;;;10.23;1.80;;;6.50;99.90;;;;;;5029527;28;20229;-61
2022/01/07 11:37:52;;;;;;;6.05;1.30;;;6.50;99.90;;;;;;5014269;28;20048;-61
2022/01/07 11:40:33;;;;;;;5.50;0.90;;;6.50;99.90;;;;;;5022377;28;20042;-61
2022/01/07 11:43:17;;;;;;;16.08;2.05;;;6.60;99.90;;;;;;5028608;28;20064;-61
2022/01/07 11:45:44;;;;;;;9.38;1.95;;;6.60;99.90;;;;;;5020820;28;20038;-61
2022/01/07 11:48:30;;;;;;;9.07;1.20;;;6.60;99.90;;;;;;5020769;28;20051;-61
2022/01/07 11:50:55;;;;;;;7.53;1.20;;;6.50;99.90;;;;;;5024934;28;20129;-61
2022/01/07 11:53:28;;;;;;;5.97;1.23;;;6.50;99.90;;;;;;5028533;28;20120;-61
2022/01/07 11:56:01;;;;;;;6.00;1.42;;;6.50;99.90;;;;;;5029896;28;20042;-61
2022/01/07 11:58:51;;;;;;;8.32;0.88;;;6.50;99.90;;;;;;5028265;28;20036;-62
2022/01/07 12:01:24;;;;;;;7.35;1.48;;;6.50;99.90;;;;;;5023415;28;20052;-61
2022/01/07 12:03:53;;;;;;;16.90;2.05;;;6.40;99.90;;;;;;5029642;28;20048;-62
2022/01/07 12:06:25;;;;;;;10.07;1.80;;;6.40;99.90;;;;;;5030295;28;20029;-61
2022/01/07 12:09:01;;;;;;;9.65;1.20;;;6.30;99.90;;;;;;5029865;28;20064;-61
2022/01/07 12:12:03;;;;;;;7.50;1.02;;;6.40;99.90;;;;;;5028076;28;20029;-62
2022/01/07 12:14:44;;;;;;;18.33;2.80;;;6.40;99.90;;;;;;4984839;28;20086;-61
2022/01/07 12:17:13;;;;;;;5.50;1.98;;;6.40;99.90;;;;;;5017242;28;20052;-61
2022/01/07 12:19:48;;;;;;;14.13;0.80;;;6.40;99.90;;;;;;5025497;28;20037;-61
2022/01/07 12:22:19;;;;;;;6.22;0.85;;;6.40;99.90;;;;;;5023393;28;20095;-60
2022/01/07 12:24:46;;;;;;;9.88;1.45;;;6.40;99.90;;;;;;5023551;28;21082;-60
2022/01/07 12:27:14;;;;;;;8.68;0.73;;;6.30;99.90;;;;;;5020446;28;20029;-60
2022/01/07 12:29:45;;;;;;;7.10;0.90;;;6.30;99.90;;;;;;5009904;28;20061;-61
2022/01/07 12:32:13;;;;;;;5.30;1.02;;;6.30;99.90;;;;;;5011990;28;20045;-61
2022/01/07 12:34:45;;;;;;;8.05;0.95;;;6.40;99.90;;;;;;5029630;28;20047;-61
2022/01/07 12:37:20;;;;;;;11.05;1.00;;;6.30;99.90;;;;;;5011339;28;20085;-61
2022/01/07 12:39:52;;;;;;;7.75;0.82;;;6.20;99.90;;;;;;5009597;28;20036;-61
2022/01/07 12:42:18;;;;;;;11.25;1.17;;;6.10;99.90;;;;;;5012358;28;20053;-61
2022/01/07 12:44:46;;;;;;;5.45;0.80;;;6.10;99.90;;;;;;5010048;28;20557;-61
2022/01/07 12:47:17;;;;;;;6.38;1.00;;;6.00;99.90;;;;;;5011337;28;20088;-61
2022/01/07 12:49:48;;;;;;;7.63;0.80;;;5.90;99.90;;;;;;5013918;28;20125;-61
2022/01/07 12:52:24;;;;;;;5.47;1.20;;;5.80;99.90;;;;;;5013381;28;20504;-61
2022/01/07 12:55:02;;;;;;;10.98;0.88;;;5.70;99.90;;;;;;5013780;28;20042;-61
2022/01/07 12:57:49;;;;;;;4.85;0.93;;;5.60;99.90;;;;;;5010939;28;20409;-61
2022/01/07 13:00:26;;;;;;;4.22;0.75;;;5.50;99.90;;;;;;5009180;28;20440;-61
2022/01/07 13:03:05;;;;;;;5.97;1.10;;;5.50;99.90;;;;;;5007963;28;20036;-61
2022/01/07 13:05:43;;;;;;;7.03;1.30;;;5.40;99.90;;;;;;5012277;28;20033;-60